createdAt,value
2023-02-12T00:01:09.386Z,9.15
2023-02-12T00:03:37.056Z,10.23
2023-02-12T00:06:04.088Z,11.07
2023-02-12T00:08:30.844Z,11.25
2023-02-12T00:10:57.593Z,10.48
2023-02-12T00:13:24.203Z,11.00
2023-02-12T00:15:50.880Z,10.48
2023-02-12T00:18:17.437Z,10.35
2023-02-12T00:20:43.920Z,9.65
2023-02-12T00:23:11.280Z,9.38
2023-02-12T00:25:41.909Z,11.02
2023-02-12T00:28:08.685Z,11.38
2023-02-12T00:30:35.998Z,11.80
2023-02-12T00:33:02.949Z,11.60
2023-02-12T00:35:29.567Z,11.02
2023-02-12T00:37:56.109Z,11.85
2023-02-12T00:40:22.630Z,9.75
2023-02-12T00:42:49.282Z,9.50
2023-02-12T00:45:17.262Z,9.82
2023-02-12T00:47:43.778Z,9.35
2023-02-12T00:50:10.827Z,9.98
2023-02-12T00:52:37.581Z,10.00
2023-02-12T00:55:05.515Z,11.50
2023-02-12T00:57:33.384Z,9.73
2023-02-12T00:59:59.983Z,11.18
2023-02-12T01:02:26.613Z,10.95
2023-02-12T01:04:53.427Z,10.32
2023-02-12T01:07:23.514Z,9.93
2023-02-12T01:09:50.075Z,9.88
2023-02-12T01:12:16.615Z,11.75
2023-02-12T01:14:43.179Z,10.20
2023-02-12T01:17:09.710Z,11.60
2023-02-12T01:19:36.284Z,11.77
2023-02-12T01:22:02.882Z,11.80
2023-02-12T01:24:29.455Z,12.63
2023-02-12T01:26:58.412Z,11.25
2023-02-12T01:29:24.960Z,13.18
2023-02-12T01:31:51.696Z,12.48
2023-02-12T01:34:18.434Z,12.48
2023-02-12T01:36:44.942Z,11.38
2023-02-12T01:39:12.326Z,12.35
2023-02-12T01:41:44.747Z,11.60
2023-02-12T01:44:18.572Z,12.02
2023-02-12T01:46:47.669Z,12.48
2023-02-12T01:49:22.697Z,12.10
2023-02-12T01:51:55.660Z,13.15
2023-02-12T01:54:25.757Z,11.48
2023-02-12T01:56:53.261Z,13.30
2023-02-12T01:59:20.910Z,12.75
2023-02-12T02:01:47.813Z,13.15
2023-02-12T02:04:18.935Z,12.65
2023-02-12T02:07:06.385Z,12.30
2023-02-12T02:09:35.913Z,10.77
2023-02-12T02:12:21.205Z,13.75
2023-02-12T02:14:49.748Z,11.68
2023-02-12T02:17:29.749Z,11.38
2023-02-12T02:20:21.147Z,11.98
2023-02-12T02:23:05.545Z,12.43
2023-02-12T02:28:11.213Z,13.73
2023-02-12T02:31:15.008Z,11.52
2023-02-12T02:34:07.187Z,12.75
2023-02-12T02:36:59.354Z,11.88
2023-02-12T02:40:05.746Z,13.07
2023-02-12T02:42:40.946Z,11.35
2023-02-12T02:45:36.038Z,10.73
2023-02-12T02:48:14.429Z,11.43
2023-02-12T02:50:46.142Z,10.75
2023-02-12T02:53:18.322Z,12.07
2023-02-12T02:55:50.402Z,11.25
2023-02-12T02:58:23.148Z,12.93
2023-02-12T03:01:02.003Z,11.73
2023-02-12T03:03:34.766Z,11.73
2023-02-12T03:06:08.139Z,10.63
2023-02-12T03:08:48.244Z,9.90
2023-02-12T03:11:24.504Z,11.05
2023-02-12T03:13:59.247Z,11.60
2023-02-12T03:16:37.510Z,10.07
2023-02-12T03:19:21.441Z,12.18
2023-02-12T03:21:58.500Z,11.00
2023-02-12T03:24:46.325Z,10.68
2023-02-12T03:27:32.978Z,10.82
2023-02-12T03:30:00.754Z,11.05
2023-02-12T03:32:36.462Z,9.68
2023-02-12T03:35:19.176Z,11.48
2023-02-12T03:38:09.012Z,10.52
2023-02-12T03:40:46.161Z,12.57
2023-02-12T03:43:22.546Z,11.15
2023-02-12T03:46:01.004Z,11.02
2023-02-12T03:48:35.940Z,11.95
2023-02-12T03:51:28.731Z,11.13
2023-02-12T03:53:57.549Z,13.27
2023-02-12T03:56:30.762Z,11.38
2023-02-12T03:58:57.639Z,11.67
2023-02-12T04:01:24.438Z,12.40
2023-02-12T04:03:51.052Z,11.85
2023-02-12T04:06:23.622Z,11.48
2023-02-12T04:08:50.298Z,12.35
2023-02-12T04:11:47.029Z,12.35
2023-02-12T04:14:22.836Z,10.93
2023-02-12T04:17:21.144Z,10.93
2023-02-12T04:20:06.143Z,10.65
2023-02-12T04:22:51.561Z,11.98
2023-02-12T04:25:26.327Z,10.73
2023-02-12T04:28:13.443Z,10.02
2023-02-12T04:30:47.502Z,10.10
2023-02-12T04:35:59.166Z,10.93
2023-02-12T04:38:31.929Z,9.88
2023-02-12T04:40:59.216Z,9.73
2023-02-12T04:43:36.595Z,10.68
2023-02-12T04:46:08.550Z,10.00
2023-02-12T04:48:42.270Z,8.98
2023-02-12T04:51:10.278Z,10.55
2023-02-12T04:53:38.236Z,9.60
2023-02-12T04:56:05.213Z,11.25
2023-02-12T04:58:31.724Z,10.90
2023-02-12T05:00:59.724Z,9.68
2023-02-12T05:03:26.370Z,11.65
2023-02-12T05:05:53.023Z,11.07
2023-02-12T05:08:19.852Z,10.48
2023-02-12T05:10:46.402Z,10.68
2023-02-12T05:13:12.985Z,10.30
2023-02-12T05:15:39.768Z,9.82
2023-02-12T05:18:06.331Z,10.35
2023-02-12T05:20:32.862Z,10.95
2023-02-12T05:22:59.336Z,10.68
2023-02-12T05:25:25.975Z,10.02
2023-02-12T05:27:52.480Z,10.60
2023-02-12T05:30:19.202Z,11.05
2023-02-12T05:32:45.789Z,10.77
2023-02-12T05:35:12.344Z,10.30
2023-02-12T05:37:38.949Z,10.88
2023-02-12T05:40:06.360Z,10.38
2023-02-12T05:42:32.983Z,10.15
2023-02-12T05:44:59.643Z,12.05
2023-02-12T05:47:26.152Z,10.18
2023-02-12T05:49:52.818Z,10.50
2023-02-12T05:52:19.316Z,11.18
2023-02-12T05:54:49.484Z,10.80
2023-02-12T05:57:16.070Z,10.82
2023-02-12T05:59:42.601Z,10.02
2023-02-12T06:02:09.086Z,10.23
2023-02-12T06:04:35.622Z,11.20
2023-02-12T06:07:02.145Z,10.70
2023-02-12T06:09:28.739Z,11.65
2023-02-12T06:11:55.463Z,11.25
2023-02-12T06:14:22.138Z,11.77
2023-02-12T06:16:50.497Z,10.25
2023-02-12T06:19:18.399Z,11.00
2023-02-12T06:21:45.158Z,10.85
2023-02-12T06:24:13.805Z,11.02
2023-02-12T06:26:40.482Z,11.02
2023-02-12T06:29:07.104Z,10.57
2023-02-12T06:31:36.126Z,10.75
2023-02-12T06:34:06.147Z,12.07
2023-02-12T06:36:33.348Z,11.50
2023-02-12T06:39:04.276Z,10.77
2023-02-12T06:41:30.990Z,11.57
2023-02-12T06:43:57.638Z,11.13
2023-02-12T06:46:24.908Z,11.65
2023-02-12T06:48:56.297Z,10.93
2023-02-12T06:51:23.692Z,12.27
2023-02-12T06:53:52.334Z,11.75
2023-02-12T06:56:20.209Z,10.38
2023-02-12T06:58:51.743Z,11.85
2023-02-12T07:01:21.431Z,12.95
2023-02-12T07:03:50.694Z,12.07
2023-02-12T07:06:17.675Z,11.57
2023-02-12T07:08:44.685Z,11.32
2023-02-12T07:11:12.035Z,12.20
2023-02-12T07:13:41.480Z,12.93
2023-02-12T07:16:11.098Z,11.32
2023-02-12T07:18:37.973Z,11.60
2023-02-12T07:21:06.204Z,12.70
2023-02-12T07:23:33.355Z,13.00
2023-02-12T07:26:02.670Z,12.88
2023-02-12T07:28:29.411Z,12.05
2023-02-12T07:30:56.114Z,12.88
2023-02-12T07:33:22.685Z,12.70
2023-02-12T07:35:49.196Z,14.15
2023-02-12T07:38:15.876Z,12.50
2023-02-12T07:40:42.492Z,10.90
2023-02-12T07:43:09.302Z,12.32
2023-02-12T07:45:36.485Z,12.95
2023-02-12T07:48:03.288Z,11.23
2023-02-12T07:50:29.909Z,12.15
2023-02-12T07:52:56.671Z,13.02
2023-02-12T07:55:23.251Z,13.63
2023-02-12T07:57:49.777Z,13.20
2023-02-12T08:00:16.786Z,12.95
2023-02-12T08:02:43.476Z,12.23
2023-02-12T08:05:10.072Z,12.40
2023-02-12T08:07:36.682Z,13.52
2023-02-12T08:10:03.545Z,12.07
2023-02-12T08:12:30.079Z,12.48
2023-02-12T08:14:56.569Z,11.52
2023-02-12T08:17:23.083Z,14.70
2023-02-12T08:19:49.668Z,14.10
2023-02-12T08:22:16.210Z,14.73
2023-02-12T08:24:43.268Z,14.75
2023-02-12T08:27:09.849Z,13.57
2023-02-12T08:29:36.792Z,14.23
2023-02-12T08:32:06.310Z,13.05
2023-02-12T08:34:35.527Z,14.98
2023-02-12T08:37:04.281Z,15.10
2023-02-12T08:39:30.862Z,15.27
2023-02-12T08:41:59.385Z,14.18
2023-02-12T08:44:26.405Z,14.38
2023-02-12T08:46:55.536Z,15.82
2023-02-12T08:49:28.431Z,18.05
2023-02-12T08:51:57.122Z,15.85
2023-02-12T08:54:26.178Z,18.80
2023-02-12T08:56:57.775Z,16.85
2023-02-12T08:59:24.584Z,16.33
2023-02-12T09:01:52.383Z,19.83
2023-02-12T09:04:25.166Z,19.75
2023-02-12T09:06:52.561Z,18.85
2023-02-12T09:09:19.873Z,20.08
2023-02-12T09:11:47.392Z,16.73
2023-02-12T09:14:16.389Z,16.02
2023-02-12T09:16:42.991Z,18.38
2023-02-12T09:19:12.504Z,17.67
2023-02-12T09:21:39.062Z,17.23
2023-02-12T09:24:05.782Z,15.55
2023-02-12T09:26:32.359Z,17.60
2023-02-12T09:35:40.504Z,18.35
2023-02-12T09:38:11.101Z,16.75
2023-02-12T09:41:07.953Z,16.52
2023-02-12T09:43:56.792Z,16.40
2023-02-12T09:54:44.427Z,18.80
2023-02-12T09:58:00.510Z,18.38
2023-02-12T10:06:51.380Z,16.77
2023-02-12T10:09:30.604Z,16.35
2023-02-12T10:12:22.727Z,15.93
2023-02-12T10:15:28.126Z,15.15
2023-02-12T10:18:22.249Z,14.95
2023-02-12T10:21:08.352Z,12.60
2023-02-12T10:23:47.636Z,12.27
2023-02-12T10:26:30.938Z,13.05
2023-02-12T10:29:08.350Z,14.57
2023-02-12T10:31:38.415Z,13.73
2023-02-12T10:34:21.276Z,13.07
2023-02-12T10:36:55.532Z,13.88
2023-02-12T10:39:28.001Z,13.43
2023-02-12T10:42:32.672Z,14.02
2023-02-12T10:44:59.434Z,13.57
2023-02-12T10:47:26.818Z,15.00
2023-02-12T10:49:59.794Z,12.85
2023-02-12T10:52:58.033Z,12.07
2023-02-12T10:55:33.570Z,12.20
2023-02-12T10:58:02.456Z,13.40
2023-02-12T11:00:32.735Z,16.75
2023-02-12T11:03:11.531Z,13.10
2023-02-12T11:05:41.167Z,13.00
2023-02-12T11:08:26.207Z,17.02
2023-02-12T11:10:53.392Z,16.52
2023-02-12T11:13:29.312Z,13.43
2023-02-12T11:15:56.121Z,16.27
2023-02-12T11:18:26.269Z,13.55
2023-02-12T11:20:57.811Z,15.68
2023-02-12T11:23:39.575Z,19.40
2023-02-12T11:26:18.257Z,11.32
2023-02-12T11:28:58.606Z,10.30
2023-02-12T11:31:35.142Z,10.32
2023-02-12T11:34:20.100Z,8.80
2023-02-12T11:36:49.912Z,8.32
2023-02-12T11:39:19.558Z,10.02
2023-02-12T11:41:52.620Z,10.40
2023-02-12T11:44:37.292Z,11.40
2023-02-12T11:47:18.608Z,11.38
2023-02-12T11:50:00.425Z,10.43
2023-02-12T11:52:31.028Z,10.60
2023-02-12T11:55:01.377Z,10.48
2023-02-12T11:57:40.271Z,9.93
2023-02-12T12:00:28.202Z,12.13
2023-02-12T12:03:04.730Z,9.55
2023-02-12T12:05:38.518Z,9.50
2023-02-12T12:08:12.627Z,8.60
2023-02-12T12:11:08.141Z,8.02
2023-02-12T12:13:41.695Z,6.70
2023-02-12T12:16:44.251Z,5.53
2023-02-12T12:19:54.681Z,6.63
2023-02-12T12:22:26.934Z,7.72
2023-02-12T12:25:00.796Z,7.07
2023-02-12T12:27:59.990Z,5.60
2023-02-12T12:31:07.221Z,5.68
2023-02-12T12:34:03.224Z,6.03
2023-02-12T12:37:14.637Z,5.72
2023-02-12T12:40:00.089Z,5.30
2023-02-12T12:43:03.313Z,4.78
2023-02-12T12:46:04.112Z,5.75
2023-02-12T12:48:55.705Z,5.65
2023-02-12T12:51:34.392Z,8.50
2023-02-12T12:54:09.770Z,7.50
2023-02-12T12:56:57.450Z,7.75
2023-02-12T12:59:55.044Z,7.68
2023-02-12T13:02:44.879Z,6.75
2023-02-12T13:05:49.899Z,6.18
2023-02-12T13:08:33.662Z,6.22
2023-02-12T13:11:02.967Z,6.53
2023-02-12T13:13:44.995Z,7.03
2023-02-12T13:16:38.506Z,6.07
2023-02-12T13:19:04.959Z,6.18
2023-02-12T13:21:48.627Z,5.72
2023-02-12T13:24:26.768Z,5.35
2023-02-12T13:27:07.721Z,5.72
2023-02-12T13:29:50.233Z,6.07
2023-02-12T13:32:25.770Z,5.60
2023-02-12T13:34:55.038Z,5.25
2023-02-12T13:37:45.647Z,5.30
2023-02-12T13:40:18.671Z,5.30
2023-02-12T13:42:48.222Z,4.60
2023-02-12T13:45:46.361Z,4.72
2023-02-12T13:48:47.059Z,4.70
2023-02-12T13:51:16.591Z,4.65
2023-02-12T13:54:04.724Z,4.93
2023-02-12T13:56:44.016Z,4.47
2023-02-12T13:59:32.471Z,4.40
2023-02-12T14:01:59.490Z,4.43
2023-02-12T14:04:32.027Z,3.95
2023-02-12T14:07:07.770Z,4.18
2023-02-12T14:09:45.088Z,4.13
2023-02-12T14:12:16.423Z,3.67
2023-02-12T14:14:49.945Z,3.75
2023-02-12T14:17:29.088Z,3.08
2023-02-12T14:19:56.970Z,3.38
2023-02-12T14:22:26.460Z,4.13
2023-02-12T14:24:57.999Z,3.95
2023-02-12T14:27:42.866Z,4.07
2023-02-12T14:30:09.914Z,3.92
2023-02-12T14:32:55.649Z,3.33
2023-02-12T14:35:40.006Z,4.35
2023-02-12T14:40:44.001Z,3.85
2023-02-12T14:43:32.645Z,3.63
2023-02-12T14:46:22.271Z,3.17
2023-02-12T14:48:51.888Z,3.35
2023-02-12T14:52:06.535Z,4.15
2023-02-12T14:54:56.394Z,3.53
2023-02-12T14:57:29.466Z,3.63
2023-02-12T15:00:20.726Z,4.10
2023-02-12T15:03:13.629Z,3.45
2023-02-12T15:05:49.597Z,3.75
2023-02-12T15:08:37.962Z,4.10
2023-02-12T15:11:21.621Z,3.50
2023-02-12T15:14:15.497Z,3.92
2023-02-12T15:16:48.072Z,3.45
2023-02-12T15:19:40.474Z,4.20
2023-02-12T15:22:30.630Z,4.35
2023-02-12T15:25:24.595Z,3.33
2023-02-12T15:27:58.942Z,3.50
2023-02-12T15:30:32.793Z,4.45
2023-02-12T15:33:03.411Z,3.28
2023-02-12T15:35:32.499Z,4.63
2023-02-12T15:38:03.420Z,3.78
2023-02-12T15:40:31.631Z,3.42
2023-02-12T15:42:59.543Z,3.30
2023-02-12T15:45:33.480Z,3.67
2023-02-12T15:50:30.793Z,3.47
2023-02-12T15:52:57.503Z,4.10
2023-02-12T15:55:27.335Z,3.63
2023-02-12T15:58:00.842Z,3.20
2023-02-12T16:00:32.023Z,3.38
2023-02-12T16:02:58.627Z,3.50
2023-02-12T16:05:26.350Z,4.45
2023-02-12T16:07:54.065Z,3.38
2023-02-12T16:10:22.516Z,3.20
2023-02-12T16:12:50.891Z,3.17
2023-02-12T16:15:25.256Z,4.13
2023-02-12T16:17:51.896Z,5.18
2023-02-12T16:20:19.092Z,8.75
2023-02-12T16:22:48.251Z,8.02
2023-02-12T16:25:24.864Z,5.97
2023-02-12T16:27:54.579Z,4.97
2023-02-12T16:30:48.411Z,9.43
2023-02-12T16:33:34.109Z,6.28
2023-02-12T16:36:02.860Z,11.60
2023-02-12T16:39:01.807Z,19.73
2023-02-12T16:41:33.377Z,15.90
2023-02-12T16:44:03.316Z,14.48
2023-02-12T16:46:33.153Z,9.85
2023-02-12T16:49:02.115Z,6.50
2023-02-12T16:51:36.502Z,7.90
2023-02-12T16:54:05.005Z,5.85
2023-02-12T16:56:38.568Z,7.28
2023-02-12T16:59:06.696Z,11.30
2023-02-12T17:01:36.572Z,8.85
2023-02-12T17:04:16.316Z,5.95
2023-02-12T17:06:43.687Z,4.82
2023-02-12T17:09:10.710Z,3.67
2023-02-12T17:11:37.232Z,6.90
2023-02-12T17:14:03.780Z,4.38
2023-02-12T17:16:31.759Z,4.35
2023-02-12T17:19:00.173Z,5.20
2023-02-12T17:21:38.406Z,6.07
2023-02-12T17:24:21.108Z,5.57
2023-02-12T17:26:50.320Z,5.60
2023-02-12T17:29:18.111Z,4.53
2023-02-12T17:31:45.041Z,6.60
2023-02-12T17:34:11.980Z,6.00
2023-02-12T17:36:38.645Z,5.97
2023-02-12T17:39:06.807Z,6.40
2023-02-12T17:41:34.100Z,8.32
2023-02-12T17:44:00.880Z,5.30
2023-02-12T17:46:28.727Z,5.25
2023-02-12T17:48:56.473Z,6.70
2023-02-12T17:51:23.148Z,6.57
2023-02-12T17:53:49.677Z,9.63
2023-02-12T17:56:21.729Z,5.45
2023-02-12T17:58:49.384Z,5.13
2023-02-12T18:01:19.365Z,3.90
2023-02-12T18:03:46.119Z,3.83
2023-02-12T18:06:16.380Z,3.85
2023-02-12T18:08:46.270Z,4.63
2023-02-12T18:11:13.387Z,4.15
2023-02-12T18:13:40.025Z,2.97
2023-02-12T18:16:08.422Z,3.42
2023-02-12T18:18:37.292Z,3.22
2023-02-12T18:21:12.094Z,4.57
2023-02-12T18:23:39.535Z,4.50
2023-02-12T18:26:12.467Z,3.78
2023-02-12T18:28:39.204Z,3.00
2023-02-12T18:31:06.783Z,3.85
2023-02-12T18:33:34.159Z,4.30
2023-02-12T18:36:12.726Z,4.05
2023-02-12T18:38:41.425Z,5.15
2023-02-12T18:41:15.794Z,5.45
2023-02-12T18:43:43.920Z,7.22
2023-02-12T18:46:14.621Z,11.73
2023-02-12T18:48:41.284Z,7.88
2023-02-12T18:51:09.261Z,7.78
2023-02-12T18:53:36.189Z,7.43
2023-02-12T18:56:08.586Z,7.70
2023-02-12T18:58:36.161Z,9.40
2023-02-12T19:01:16.054Z,14.95
2023-02-12T19:03:44.234Z,11.27
2023-02-12T19:06:11.503Z,9.98
2023-02-12T19:08:38.083Z,10.50
2023-02-12T19:11:09.972Z,8.93
2023-02-12T19:13:37.152Z,8.05
2023-02-12T19:16:14.859Z,8.45
2023-02-12T19:18:41.426Z,9.73
2023-02-12T19:21:10.768Z,7.35
2023-02-12T19:23:37.767Z,8.70
2023-02-12T19:26:06.514Z,8.52
2023-02-12T19:28:34.493Z,8.45
2023-02-12T19:31:10.922Z,7.80
2023-02-12T19:33:39.117Z,8.43
2023-02-12T19:36:07.557Z,8.13
2023-02-12T19:38:35.686Z,7.28
2023-02-12T19:41:07.866Z,8.23
2023-02-12T19:43:34.978Z,9.40
2023-02-12T19:46:10.568Z,8.43
2023-02-12T19:48:37.522Z,7.20
2023-02-12T19:51:04.487Z,8.10
2023-02-12T19:53:31.412Z,8.57
2023-02-12T19:56:04.513Z,8.27
2023-02-12T19:58:31.208Z,7.97
2023-02-12T20:00:58.380Z,7.75
2023-02-12T20:03:26.448Z,7.55
2023-02-12T20:06:05.164Z,8.15
2023-02-12T20:08:33.372Z,8.15
2023-02-12T20:10:59.965Z,7.35
2023-02-12T20:13:27.749Z,6.65
2023-02-12T20:15:54.624Z,7.63
2023-02-12T20:18:21.351Z,6.93
2023-02-12T20:20:47.926Z,6.72
2023-02-12T20:23:14.462Z,7.82
2023-02-12T20:25:45.296Z,9.68
2023-02-12T20:28:12.227Z,9.27
2023-02-12T20:30:40.983Z,8.43
2023-02-12T20:33:07.731Z,6.18
2023-02-12T20:35:37.070Z,7.25
2023-02-12T20:38:07.601Z,7.05
2023-02-12T20:40:34.375Z,7.38
2023-02-12T20:43:00.913Z,6.13
2023-02-12T20:45:27.972Z,6.88
2023-02-12T20:48:00.711Z,6.05
2023-02-12T20:50:27.489Z,6.20
2023-02-12T20:52:54.136Z,6.00
2023-02-12T20:55:20.961Z,7.18
2023-02-12T20:57:49.475Z,6.65
2023-02-12T21:00:17.076Z,8.52
2023-02-12T21:02:43.656Z,6.32
2023-02-12T21:05:10.351Z,6.85
2023-02-12T21:07:36.922Z,6.90
2023-02-12T21:10:03.551Z,5.72
2023-02-12T21:12:30.127Z,7.40
2023-02-12T21:14:56.697Z,5.85
2023-02-12T21:17:24.569Z,8.57
2023-02-12T21:19:51.055Z,6.40
2023-02-12T21:22:17.781Z,4.88
2023-02-12T21:24:44.324Z,5.53
2023-02-12T21:27:11.747Z,5.25
2023-02-12T21:29:38.314Z,5.40
2023-02-12T21:32:05.069Z,5.35
2023-02-12T21:34:31.764Z,4.85
2023-02-12T21:36:58.322Z,5.03
2023-02-12T21:39:27.755Z,4.07
2023-02-12T21:41:58.384Z,5.38
2023-02-12T21:44:26.686Z,5.13
2023-02-12T21:46:54.389Z,6.10
2023-02-12T21:49:29.816Z,5.95
2023-02-12T21:52:01.878Z,5.82
2023-02-12T21:54:29.787Z,6.55
2023-02-12T21:56:56.710Z,7.00
2023-02-12T21:59:24.814Z,7.72
2023-02-12T22:01:53.760Z,7.03
2023-02-12T22:04:20.269Z,7.13
2023-02-12T22:06:49.512Z,7.55
2023-02-12T22:09:18.787Z,7.15
2023-02-12T22:11:45.793Z,7.32
2023-02-12T22:14:15.795Z,6.93
2023-02-12T22:16:42.721Z,6.90
2023-02-12T22:19:09.683Z,6.45
2023-02-12T22:21:40.160Z,7.50
2023-02-12T22:24:09.404Z,9.20
2023-02-12T22:26:36.219Z,8.30
2023-02-12T22:29:06.813Z,8.93
2023-02-12T22:31:35.516Z,6.82
2023-02-12T22:34:05.059Z,7.50
2023-02-12T22:36:34.972Z,7.88
2023-02-12T22:39:01.684Z,7.57
2023-02-12T22:41:28.809Z,8.13
2023-02-12T22:43:58.299Z,7.43
2023-02-12T22:46:24.979Z,7.72
2023-02-12T22:48:51.780Z,7.72
2023-02-12T22:51:30.040Z,7.80
2023-02-12T22:53:57.065Z,7.85
2023-02-12T22:56:25.062Z,7.63
2023-02-12T22:59:00.023Z,6.97
2023-02-12T23:01:27.800Z,6.72
2023-02-12T23:03:55.027Z,5.80
2023-02-12T23:06:24.087Z,7.03
2023-02-12T23:08:52.414Z,6.82
2023-02-12T23:11:19.565Z,6.35
2023-02-12T23:13:46.868Z,6.38
2023-02-12T23:16:13.602Z,7.38
2023-02-12T23:18:40.158Z,7.20
2023-02-12T23:21:06.760Z,6.55
2023-02-12T23:23:33.305Z,6.88
2023-02-12T23:26:00.190Z,6.50
2023-02-12T23:28:26.855Z,7.80
2023-02-12T23:30:53.451Z,6.32
2023-02-12T23:33:20.720Z,6.70
2023-02-12T23:35:48.251Z,6.55
2023-02-12T23:38:15.602Z,6.80
2023-02-12T23:40:42.844Z,7.22
2023-02-12T23:43:09.607Z,6.93
2023-02-12T23:45:36.128Z,7.05
2023-02-12T23:48:02.705Z,6.88
2023-02-12T23:50:29.301Z,6.93
2023-02-12T23:52:55.885Z,7.18
2023-02-12T23:55:22.369Z,6.97
2023-02-12T23:57:50.046Z,7.45
